Time;durP1;ratioP1;P1;durP2;ratioP2;P2;SDS_P1;SDS_P2;PMS_P1;PMS_P2;Temp;Humidity;BMP_temperature;BMP_pressure;BME280_temperature;BME280_humidity;BME280_pressure;Samples;Min_cycle;Max_cycle;Signal;HPM_P1;HPM_P2
2022/05/03 00:00:12;;;;;;;8.52;3.95;;;;;;;10.55;61.10;102097.16;4974865;28;97417;-35
2022/05/03 00:02:47;;;;;;;6.93;3.60;;;;;;;10.56;61.42;102098.94;4957117;28;96492;-35
2022/05/03 00:05:23;;;;;;;9.02;4.03;;;;;;;10.54;62.23;102099.94;4973255;28;96750;-35
2022/05/03 00:08:13;;;;;;;9.25;4.18;;;;;;;10.48;62.36;102094.75;4973595;28;99735;-35
2022/05/03 00:10:58;;;;;;;6.72;3.90;;;;;;;10.38;61.84;102089.72;4972767;28;100883;-35
2022/05/03 00:13:29;;;;;;;8.07;4.07;;;;;;;10.35;61.59;102078.16;4972768;28;97017;-35
2022/05/03 00:15:55;;;;;;;8.65;4.05;;;;;;;10.34;62.56;102079.06;4973132;28;96674;-35
2022/05/03 00:18:22;;;;;;;9.52;4.00;;;;;;;10.29;61.51;102078.38;4972763;28;100960;-35
2022/05/03 00:20:48;;;;;;;7.78;4.05;;;;;;;10.26;61.78;102078.47;4972680;28;100467;-35
2022/05/03 00:23:14;;;;;;;10.27;4.25;;;;;;;10.18;61.63;102074.25;4972835;28;96581;-35
2022/05/03 00:25:41;;;;;;;8.73;4.95;;;;;;;10.20;62.08;102077.78;4989797;28;96722;-35
2022/05/03 00:28:08;;;;;;;11.98;4.95;;;;;;;10.18;62.90;102076.97;4972582;28;100978;-35
2022/05/03 00:30:35;;;;;;;9.85;4.45;;;;;;;10.18;62.99;102087.78;4972726;28;100847;-35
2022/05/03 00:33:02;;;;;;;8.48;4.35;;;;;;;10.14;61.77;102091.56;4972225;28;97041;-35
2022/05/03 00:35:28;;;;;;;10.02;4.22;;;;;;;10.08;63.93;102083.69;4973685;28;96878;-35
2022/05/03 00:37:53;;;;;;;8.65;4.50;;;;;;;10.08;63.38;102083.69;4973918;28;97639;-35
2022/05/03 00:40:20;;;;;;;8.82;4.75;;;;;;;10.05;63.02;102089.22;4974069;28;97823;-35
2022/05/03 00:42:57;;;;;;;9.23;5.00;;;;;;;9.96;64.70;102081.44;4972584;28;96640;-35
2022/05/03 00:45:41;;;;;;;5.63;3.58;;;;;;;10.03;64.39;102093.81;4957338;28;96772;-35
2022/05/03 00:48:27;;;;;;;8.90;4.38;;;;;;;10.05;64.23;102089.22;4972423;28;100798;-35
2022/05/03 00:51:12;;;;;;;9.10;4.82;;;;;;;10.07;64.37;102081.91;4973635;28;114691;-35
2022/05/03 00:54:04;;;;;;;7.65;4.15;;;;;;;10.07;64.23;102079.22;4973955;28;96476;-35
2022/05/03 00:56:45;;;;;;;8.57;4.35;;;;;;;10.05;63.56;102077.50;4972451;28;96780;-35
2022/05/03 00:59:29;;;;;;;7.10;4.05;;;;;;;9.98;63.99;102068.75;4971043;28;100812;-35
2022/05/03 01:02:02;;;;;;;7.70;4.15;;;;;;;10.00;64.58;102072.28;4972341;28;100984;-34
2022/05/03 01:04:34;;;;;;;8.07;4.40;;;;;;;10.09;64.35;102084.56;4972117;28;98394;-35
2022/05/03 01:07:15;;;;;;;8.75;4.57;;;;;;;10.11;64.21;102088.97;4973395;28;96901;-35
2022/05/03 01:10:02;;;;;;;10.30;5.00;;;;;;;10.10;64.22;102083.63;4973120;28;110371;-35
2022/05/03 01:12:49;;;;;;;9.13;4.72;;;;;;;10.02;64.91;102070.41;4972520;28;97539;-35
2022/05/03 01:15:25;;;;;;;12.82;5.35;;;;;;;10.10;64.08;102092.63;4972185;28;96653;-35
2022/05/03 01:18:06;;;;;;;9.65;5.40;;;;;;;10.05;64.82;102069.38;4972381;28;96775;-35
2022/05/03 01:21:09;;;;;;;10.35;5.57;;;;;;;10.07;65.19;102087.34;4973341;28;97569;-35
2022/05/03 01:24:04;;;;;;;11.32;5.28;;;;;;;10.06;64.75;102088.28;4971986;28;99192;-34
2022/05/03 01:26:52;;;;;;;10.35;4.57;;;;;;;10.04;63.40;102092.88;4972667;28;96635;-34
2022/05/03 01:29:25;;;;;;;10.43;4.72;;;;;;;9.99;64.97;102074.09;4981334;28;96858;-35
2022/05/03 01:31:56;;;;;;;8.35;4.45;;;;;;;9.92;65.29;102071.72;4973039;28;98088;-35
2022/05/03 01:34:24;;;;;;;11.32;4.72;;;;;;;9.92;65.43;102066.28;4971645;28;101054;-35
2022/05/03 01:37:12;;;;;;;8.43;4.63;;;;;;;9.95;65.57;102069.75;4971906;28;96556;-35
2022/05/03 01:40:06;;;;;;;10.65;4.88;;;;;;;9.94;65.04;102068.00;4973276;28;96557;-35
2022/05/03 01:42:37;;;;;;;8.77;4.07;;;;;;;9.93;64.45;102073.47;4971486;28;101558;-35
2022/05/03 01:45:07;;;;;;;9.43;4.88;;;;;;;9.76;64.57;102055.19;4973224;28;97842;-35
2022/05/03 01:48:08;;;;;;;9.15;4.53;;;;;;;9.77;66.68;102073.16;4971632;28;96540;-35
2022/05/03 01:50:53;;;;;;;8.93;4.70;;;;;;;9.72;64.93;102073.34;4972837;28;96703;-35
2022/05/03 01:53:21;;;;;;;8.18;3.75;;;;;;;9.62;65.57;102065.66;4971095;28;98957;-34
2022/05/03 01:56:08;;;;;;;12.90;5.20;;;;;;;9.68;65.10;102068.13;4971403;28;101314;-35
2022/05/03 01:59:04;;;;;;;8.38;4.80;;;;;;;9.60;66.50;102062.09;4973209;28;96605;-35
2022/05/03 02:02:00;;;;;;;9.18;4.55;;;;;;;9.66;65.54;102068.19;4972713;28;96570;-35
2022/05/03 02:04:43;;;;;;;9.45;5.47;;;;;;;9.59;65.23;102054.94;4971341;28;100980;-35
2022/05/03 02:07:17;;;;;;;11.60;4.03;;;;;;;9.57;66.94;102068.53;4970747;28;100936;-35
2022/05/03 02:10:18;;;;;;;14.20;5.20;;;;;;;9.51;66.01;102071.44;4971309;28;96530;-34
2022/05/03 02:12:48;;;;;;;8.57;4.35;;;;;;;9.39;65.89;102056.59;4971613;28;96969;-34
2022/05/03 02:15:22;;;;;;;8.18;4.97;;;;;;;9.41;66.08;102068.19;4970921;28;102195;-35
2022/05/03 02:18:03;;;;;;;8.35;4.53;;;;;;;9.33;66.23;102062.22;4955622;28;100780;-35
2022/05/03 02:20:43;;;;;;;11.38;5.60;;;;;;;9.33;66.73;102070.31;4970827;28;97452;-35
2022/05/03 02:23:20;;;;;;;10.20;5.95;;;;;;;9.23;66.89;102061.66;4972491;28;96830;-34
2022/05/03 02:26:16;;;;;;;8.63;4.85;;;;;;;9.20;67.63;102067.19;4971639;28;119539;-35
2022/05/03 02:28:43;;;;;;;11.60;5.55;;;;;;;9.15;66.71;102071.84;4973709;28;96903;-35
2022/05/03 02:31:17;;;;;;;11.40;4.55;;;;;;;9.05;66.73;102054.22;4971015;28;96575;-34
2022/05/03 02:34:24;;;;;;;11.35;4.88;;;;;;;9.16;67.40;102076.34;4972654;28;96468;-34
2022/05/03 02:36:58;;;;;;;9.23;5.35;;;;;;;9.12;66.95;102066.56;4971677;28;97951;-35
2022/05/03 02:39:30;;;;;;;10.00;5.00;;;;;;;9.08;66.91;102064.91;4971253;28;100623;-35
2022/05/03 02:41:59;;;;;;;7.65;4.68;;;;;;;9.07;67.42;102065.84;4971018;28;96618;-35
2022/05/03 02:44:28;;;;;;;9.00;5.40;;;;;;;8.98;67.71;102058.94;4970813;28;96930;-35
2022/05/03 02:47:05;;;;;;;8.98;5.10;;;;;;;9.04;67.17;102061.44;4970229;28;100916;-35
2022/05/03 02:49:41;;;;;;;9.73;5.18;;;;;;;8.98;67.92;102052.66;4970893;28;100746;-35
2022/05/03 02:52:22;;;;;;;11.32;5.55;;;;;;;9.08;67.21;102067.59;4970761;28;96764;-35
2022/05/03 02:55:08;;;;;;;9.95;5.45;;;;;;;9.07;67.24;102061.31;4972369;28;96524;-35
2022/05/03 02:57:54;;;;;;;10.05;4.82;;;;;;;9.07;68.40;102063.16;4972274;28;97304;-34
2022/05/03 03:03:16;;;;;;;8.18;4.45;;;;;;;9.08;67.68;102067.59;4972341;28;96570;-35
2022/05/03 03:05:46;;;;;;;9.57;5.43;;;;;;;9.04;67.56;102060.56;4972003;28;109647;-35
2022/05/03 03:08:13;;;;;;;9.38;4.97;;;;;;;8.99;66.43;102065.25;4970154;28;101234;-35
2022/05/03 03:10:52;;;;;;;11.57;5.93;;;;;;;8.98;68.60;102071.59;4953879;28;101468;-35
2022/05/03 03:13:25;;;;;;;9.30;4.68;;;;;;;8.81;68.16;102055.97;4969542;28;97761;-34
2022/05/03 03:15:51;;;;;;;9.30;4.95;;;;;;;8.82;67.81;102060.41;4971587;28;96699;-34
2022/05/03 03:18:22;;;;;;;9.90;5.60;;;;;;;8.80;68.31;102062.31;4971891;28;97819;-35
2022/05/03 03:20:55;;;;;;;9.57;5.03;;;;;;;8.79;68.04;102063.22;4970575;28;100574;-34
2022/05/03 03:23:26;;;;;;;12.68;5.78;;;;;;;8.67;67.22;102043.81;4973811;28;96695;-35
2022/05/03 03:25:51;;;;;;;9.23;5.25;;;;;;;8.75;67.78;102067.88;4975188;28;96683;-35
2022/05/03 03:28:20;;;;;;;9.75;5.05;;;;;;;8.73;68.59;102061.63;4975042;28;97472;-34
2022/05/03 03:30:49;;;;;;;7.18;4.22;;;;;;;8.66;67.94;102046.56;4975242;28;97916;-35
2022/05/03 03:33:17;;;;;;;10.25;4.95;;;;;;;8.62;68.17;102044.91;4973781;28;96820;-35
2022/05/03 03:35:44;;;;;;;11.30;6.13;;;;;;;8.60;68.19;102052.19;4973758;28;96881;-35
2022/05/03 03:38:13;;;;;;;10.73;5.28;;;;;;;8.54;68.15;102042.47;4972937;28;100918;-35
2022/05/03 03:40:39;;;;;;;8.70;4.80;;;;;;;8.53;68.06;102047.91;4973448;28;100022;-35
2022/05/03 03:43:05;;;;;;;9.48;4.95;;;;;;;8.56;69.11;102054.13;4973481;28;96618;-35
2022/05/03 03:45:31;;;;;;;9.82;5.50;;;;;;;8.48;68.84;102048.94;4974918;28;96721;-34
2022/05/03 03:47:56;;;;;;;13.52;5.82;;;;;;;8.55;68.19;102056.84;4974900;28;97432;-34
2022/05/03 03:50:25;;;;;;;12.60;5.40;;;;;;;8.50;68.76;102043.50;4974723;28;97836;-35
2022/05/03 03:52:51;;;;;;;10.00;5.18;;;;;;;8.52;67.98;102060.53;4974709;28;96485;-35
2022/05/03 03:55:17;;;;;;;10.00;5.32;;;;;;;8.42;68.53;102043.78;4973697;28;96796;-34
2022/05/03 03:57:44;;;;;;;8.35;4.82;;;;;;;8.44;68.32;102054.53;4956828;28;101171;-35
2022/05/03 04:00:12;;;;;;;9.32;5.05;;;;;;;8.41;68.33;102055.47;4974725;28;97806;-35
2022/05/03 04:02:40;;;;;;;12.98;5.30;;;;;;;8.47;69.01;102060.69;4974076;28;96505;-35
2022/05/03 04:05:13;;;;;;;11.57;5.18;;;;;;;8.47;68.93;102055.28;4956643;28;96891;-35
2022/05/03 04:07:39;;;;;;;9.35;4.88;;;;;;;8.48;68.02;102058.88;4956580;28;101091;-35
2022/05/03 04:10:04;;;;;;;7.78;5.07;;;;;;;8.46;68.56;102058.94;4974210;28;98081;-35
2022/05/03 04:12:30;;;;;;;13.77;5.25;;;;;;;8.40;68.63;102048.34;4972853;28;96785;-34
2022/05/03 04:14:55;;;;;;;13.73;5.68;;;;;;;8.38;68.79;102047.47;4973078;28;96676;-34
2022/05/03 04:17:21;;;;;;;11.65;5.50;;;;;;;8.44;69.46;102057.22;4973432;28;127107;-35
2022/05/03 04:19:46;;;;;;;10.10;4.82;;;;;;;8.41;68.33;102055.47;4973694;28;126084;-35
2022/05/03 04:22:26;;;;;;;10.13;4.78;;;;;;;8.39;68.84;102053.75;4974478;28;96512;-34
2022/05/03 04:24:52;;;;;;;11.48;5.95;;;;;;;8.30;69.00;102041.44;4972714;28;96822;-35
2022/05/03 04:27:19;;;;;;;10.98;5.32;;;;;;;8.35;67.97;102044.88;4973785;28;97756;-35
2022/05/03 04:29:44;;;;;;;11.65;5.45;;;;;;;8.35;69.14;102052.97;4972806;28;100787;-34
2022/05/03 04:32:09;;;;;;;10.43;5.20;;;;;;;8.31;68.73;102045.91;4973007;28;116616;-34
2022/05/03 04:34:35;;;;;;;11.48;4.97;;;;;;;8.35;68.68;102052.97;4973497;28;97774;-35
2022/05/03 04:37:00;;;;;;;10.25;4.43;;;;;;;8.39;67.49;102059.13;4973427;28;111930;-34
2022/05/03 04:39:25;;;;;;;9.85;4.63;;;;;;;8.37;68.00;102048.41;4973764;28;98861;-34
2022/05/03 04:41:51;;;;;;;9.23;4.55;;;;;;;8.45;68.40;102062.56;4974061;28;96489;-34
2022/05/03 04:44:16;;;;;;;9.20;4.82;;;;;;;8.44;68.70;102051.81;4974457;28;96842;-34
2022/05/03 04:46:41;;;;;;;10.48;4.72;;;;;;;8.52;68.38;102062.38;4972719;28;124972;-35
2022/05/03 04:49:06;;;;;;;9.75;4.95;;;;;;;8.54;68.33;102060.50;4973977;28;97910;-34
2022/05/03 04:51:33;;;;;;;8.68;4.78;;;;;;;8.60;67.99;102058.44;4970847;28;124026;-34
2022/05/03 04:53:58;;;;;;;9.18;5.05;;;;;;;8.64;67.59;102061.94;4972392;28;96948;-34
2022/05/03 04:56:24;;;;;;;10.07;5.38;;;;;;;8.56;68.18;102047.84;4973642;28;97930;-34
2022/05/03 04:58:51;;;;;;;15.13;5.13;;;;;;;8.64;67.32;102051.16;4972236;28;100512;-34
2022/05/03 05:01:17;;;;;;;10.43;5.20;;;;;;;8.71;67.69;102056.28;4972299;28;96765;-34
2022/05/03 05:03:43;;;;;;;11.25;5.28;;;;;;;8.72;67.56;102057.16;4972402;28;96855;-34
2022/05/03 05:06:10;;;;;;;13.13;5.53;;;;;;;8.73;67.83;102060.75;4971740;28;100560;-34
2022/05/03 05:08:43;;;;;;;10.57;4.80;;;;;;;8.75;67.89;102056.16;4972215;28;100674;-34
2022/05/03 05:11:09;;;;;;;7.07;4.07;;;;;;;8.79;67.09;102060.53;4972087;28;96851;-35
2022/05/03 05:13:36;;;;;;;10.68;5.28;;;;;;;8.84;67.21;102066.66;4971921;28;96954;-35
2022/05/03 05:16:02;;;;;;;9.60;4.88;;;;;;;8.88;67.47;102066.50;4971567;28;100828;-34
2022/05/03 05:18:30;;;;;;;8.88;4.55;;;;;;;8.96;67.39;102070.75;4973283;28;97958;-34
2022/05/03 05:20:56;;;;;;;9.60;5.10;;;;;;;8.96;67.34;102062.63;4972090;28;96688;-34
2022/05/03 05:23:22;;;;;;;9.10;4.80;;;;;;;9.03;66.58;102056.09;4973238;28;96817;-34
2022/05/03 05:25:48;;;;;;;9.40;4.05;;;;;;;9.10;66.25;102069.31;4973440;28;97354;-34
2022/05/03 05:28:14;;;;;;;9.05;5.00;;;;;;;9.17;66.15;102069.09;4971776;28;100792;-34
2022/05/03 05:30:41;;;;;;;7.53;4.15;;;;;;;9.20;66.14;102058.19;4971940;28;96572;-34
2022/05/03 05:33:07;;;;;;;8.95;5.63;;;;;;;9.32;65.71;102072.16;4972264;28;96793;-35
2022/05/03 05:35:32;;;;;;;9.85;5.43;;;;;;;9.45;65.04;102079.81;4973189;28;97960;-34
2022/05/03 05:37:58;;;;;;;10.30;5.43;;;;;;;9.54;66.08;102083.03;4973159;28;97784;-34
2022/05/03 05:40:23;;;;;;;7.43;4.45;;;;;;;9.55;66.21;102084.78;4972755;28;96486;-35
2022/05/03 05:42:49;;;;;;;9.43;5.00;;;;;;;9.62;65.32;102082.75;4973340;28;96759;-34
2022/05/03 05:45:16;;;;;;;10.52;5.40;;;;;;;9.68;65.32;102074.41;4972490;28;99727;-34
2022/05/03 05:47:41;;;;;;;9.50;5.00;;;;;;;9.83;65.32;102085.59;4971465;28;100790;-35
2022/05/03 05:50:06;;;;;;;9.27;4.80;;;;;;;9.91;65.35;102088.88;4972725;28;98355;-34
2022/05/03 05:55:15;;;;;;;10.73;4.95;;;;;;;10.12;65.23;102089.84;4973092;28;97046;-34
2022/05/03 05:57:41;;;;;;;12.02;6.28;;;;;;;10.17;66.04;102077.88;4972406;28;127177;-34
2022/05/03 06:00:07;;;;;;;8.77;4.63;;;;;;;10.28;65.16;102085.63;4973190;28;96513;-34
2022/05/03 06:02:32;;;;;;;10.38;5.22;;;;;;;10.34;66.29;102076.34;4972531;28;96929;-34
2022/05/03 06:04:57;;;;;;;6.90;4.63;;;;;;;10.51;65.70;102090.13;4971344;28;126514;-34
2022/05/03 06:07:22;;;;;;;11.07;6.15;;;;;;;10.58;64.99;102071.75;4971265;28;126491;-34
2022/05/03 06:09:48;;;;;;;11.05;5.55;;;;;;;10.73;65.08;102081.97;4971782;28;121733;-35
2022/05/03 06:12:13;;;;;;;8.43;5.18;;;;;;;10.85;64.52;102077.84;4971108;28;121623;-33
2022/05/03 06:14:38;;;;;;;15.45;6.20;;;;;;;10.83;64.98;102071.59;4971382;28;125220;-35
2022/05/03 06:17:03;;;;;;;11.30;5.75;;;;;;;10.89;64.81;102079.47;4972205;28;99127;-34
2022/05/03 06:19:29;;;;;;;11.30;5.43;;;;;;;10.93;66.60;102088.34;4972389;28;98448;-34
2022/05/03 06:21:54;;;;;;;10.73;6.28;;;;;;;10.84;64.29;102074.25;4972833;28;100478;-34
2022/05/03 06:24:19;;;;;;;16.45;5.57;;;;;;;10.89;64.60;102078.59;4972405;28;102308;-35
2022/05/03 06:26:45;;;;;;;10.80;5.97;;;;;;;11.00;65.29;102088.00;4972154;28;107231;-34
2022/05/03 06:29:11;;;;;;;14.90;7.05;;;;;;;11.03;65.72;102097.84;4972018;28;96486;-35
2022/05/03 06:31:37;;;;;;;13.27;6.85;;;;;;;11.03;64.73;102084.28;4970831;28;96807;-35
2022/05/03 06:34:06;;;;;;;10.25;5.82;;;;;;;11.03;65.08;102087.00;4970839;28;101049;-34
2022/05/03 06:36:35;;;;;;;10.73;6.05;;;;;;;11.08;65.16;102084.09;4970766;28;100734;-34
2022/05/03 06:39:00;;;;;;;13.18;5.28;;;;;;;11.18;64.60;102097.19;4970982;28;96619;-35
2022/05/03 06:41:25;;;;;;;9.35;5.15;;;;;;;11.21;64.74;102088.03;4972398;28;96763;-34
2022/05/03 06:43:51;;;;;;;13.52;7.07;;;;;;;11.30;64.54;102101.19;4971978;28;103720;-34
2022/05/03 06:46:17;;;;;;;13.38;6.10;;;;;;;11.27;64.14;102085.94;4971148;28;127039;-35
2022/05/03 06:48:42;;;;;;;14.05;6.30;;;;;;;11.30;64.27;102093.06;4972364;28;96690;-34
2022/05/03 06:51:07;;;;;;;10.52;5.53;;;;;;;11.37;64.25;102102.69;4972217;28;96836;-34
2022/05/03 06:53:33;;;;;;;14.48;6.22;;;;;;;11.41;63.88;102104.28;4971971;28;96806;-34
2022/05/03 06:55:58;;;;;;;14.60;6.47;;;;;;;11.50;64.63;102111.13;4972740;28;97776;-35
2022/05/03 06:58:24;;;;;;;12.27;6.82;;;;;;;11.55;63.87;102110.94;4975679;28;97661;-34
2022/05/03 07:00:49;;;;;;;11.25;5.63;;;;;;;11.60;65.47;102108.88;4975899;28;96883;-34
2022/05/03 07:03:16;;;;;;;13.35;6.47;;;;;;;11.66;64.67;102111.34;4974670;28;127373;-34
2022/05/03 07:05:42;;;;;;;10.85;6.30;;;;;;;11.65;63.51;102098.69;4975326;28;97781;-34
2022/05/03 07:08:08;;;;;;;14.05;6.88;;;;;;;11.74;63.88;102098.28;4975416;28;96523;-35
2022/05/03 07:10:34;;;;;;;15.68;6.50;;;;;;;11.79;64.31;102095.34;4974334;28;96862;-34
2022/05/03 07:12:59;;;;;;;10.00;5.53;;;;;;;11.89;64.03;102102.13;4974764;28;98747;-34
2022/05/03 07:15:25;;;;;;;11.90;6.72;;;;;;;11.96;62.85;102097.31;4975072;28;104291;-35
2022/05/03 07:23:18;;;;;;;14.10;6.68;;;;;;;12.29;62.96;102098.41;4975572;28;97100;-35
2022/05/03 07:25:44;;;;;;;15.95;7.78;;;;;;;12.44;62.85;102104.03;4974021;28;126294;-35
2022/05/03 07:28:10;;;;;;;18.48;8.57;;;;;;;12.55;62.62;102096.25;4975092;28;96453;-35
2022/05/03 07:30:36;;;;;;;14.95;7.40;;;;;;;12.57;63.71;102096.19;4975071;28;96831;-35
2022/05/03 07:33:02;;;;;;;15.23;6.75;;;;;;;12.73;63.20;102103.47;4973687;28;100819;-35
2022/05/03 07:35:27;;;;;;;16.25;7.15;;;;;;;12.82;62.90;102114.84;4975270;28;97814;-34
2022/05/03 07:37:53;;;;;;;16.42;7.60;;;;;;;12.88;63.22;102115.41;4975168;28;96502;-35
2022/05/03 07:40:18;;;;;;;18.65;8.02;;;;;;;12.95;63.28;102115.97;4974869;28;96932;-35
2022/05/03 07:42:44;;;;;;;11.98;6.45;;;;;;;12.95;63.00;102115.97;4974336;28;97793;-35
2022/05/03 07:45:10;;;;;;;14.35;6.63;;;;;;;13.02;62.77;102112.00;4974921;28;97830;-35
2022/05/03 07:47:36;;;;;;;16.10;7.45;;;;;;;13.08;62.81;102114.38;4975091;28;96506;-35
2022/05/03 07:50:03;;;;;;;14.85;7.55;;;;;;;13.13;63.10;102109.59;4974998;28;96950;-34
2022/05/03 07:52:28;;;;;;;13.98;6.75;;;;;;;13.24;63.72;102117.19;4973160;28;103208;-35
2022/05/03 07:54:55;;;;;;;19.67;8.05;;;;;;;13.29;62.48;102108.81;4974717;28;97792;-35
2022/05/03 07:57:21;;;;;;;16.20;6.38;;;;;;;13.29;64.52;102100.66;4973475;28;97159;-35
2022/05/03 07:59:46;;;;;;;12.93;6.55;;;;;;;13.42;63.91;102114.47;4990363;28;96851;-35
2022/05/03 08:02:12;;;;;;;12.05;5.70;;;;;;;13.42;63.01;102104.50;4974729;28;98008;-35
2022/05/03 08:04:43;;;;;;;12.95;6.22;;;;;;;13.47;63.38;102105.13;4973051;28;101216;-34
2022/05/03 08:07:09;;;;;;;17.60;6.15;;;;;;;13.60;61.67;102113.50;4973947;28;96746;-35
2022/05/03 08:09:44;;;;;;;13.95;6.05;;;;;;;13.59;62.67;102106.31;4974552;28;96826;-35
2022/05/03 08:12:10;;;;;;;13.45;5.88;;;;;;;13.68;62.43;102104.91;4972613;28;100973;-33
2022/05/03 08:14:36;;;;;;;13.82;6.78;;;;;;;13.84;62.25;102108.56;4972727;28;102376;-35
2022/05/03 08:17:02;;;;;;;13.90;6.10;;;;;;;14.02;61.66;102113.00;4974303;28;96674;-35
2022/05/03 08:19:27;;;;;;;10.57;5.53;;;;;;;14.14;61.98;102111.44;4972897;28;96900;-35
2022/05/03 08:21:54;;;;;;;11.60;6.32;;;;;;;14.24;62.08;102120.81;4974081;28;99796;-35
2022/05/03 08:24:20;;;;;;;11.38;6.22;;;;;;;14.36;60.81;102119.25;4974550;28;96870;-35
2022/05/03 08:26:45;;;;;;;17.48;6.70;;;;;;;14.50;60.66;102125.78;4974146;28;96635;-34
2022/05/03 08:29:10;;;;;;;12.02;5.90;;;;;;;14.65;60.70;102120.31;4974307;28;96772;-34
2022/05/03 08:31:35;;;;;;;10.77;6.03;;;;;;;14.65;61.34;102116.72;4972365;28;127152;-34
2022/05/03 08:34:02;;;;;;;10.00;5.07;;;;;;;14.78;60.31;102120.50;4973030;28;126814;-35
2022/05/03 08:36:31;;;;;;;15.15;5.88;;;;;;;14.78;60.31;102119.63;4973979;28;96615;-35
2022/05/03 08:44:25;;;;;;;12.48;6.15;;;;;;;14.75;60.56;102128.84;4974314;28;97045;-35
2022/05/03 08:46:53;;;;;;;13.82;5.80;;;;;;;14.73;60.43;102125.34;4973688;28;96619;-35
2022/05/03 08:49:22;;;;;;;12.70;5.88;;;;;;;14.65;60.82;102119.44;4972797;28;96900;-35
2022/05/03 08:51:50;;;;;;;10.82;6.05;;;;;;;14.59;61.22;102128.00;4955983;28;100911;-34
2022/05/03 08:54:16;;;;;;;15.57;5.72;;;;;;;14.56;61.22;102126.34;4972190;28;100985;-34
2022/05/03 08:56:41;;;;;;;10.77;5.05;;;;;;;14.48;61.43;102114.06;4973349;28;96540;-34
2022/05/03 08:59:08;;;;;;;15.40;6.60;;;;;;;14.42;61.44;102123.50;4973943;28;96669;-35
2022/05/03 09:01:34;;;;;;;14.32;5.72;;;;;;;14.48;61.38;102135.88;4971922;28;100852;-35
2022/05/03 09:04:00;;;;;;;11.63;5.38;;;;;;;14.57;62.14;102138.13;4988761;28;100857;-34
2022/05/03 09:06:48;;;;;;;13.30;5.68;;;;;;;14.71;61.80;102138.19;4973334;28;96626;-34
2022/05/03 09:09:15;;;;;;;15.13;6.45;;;;;;;14.89;61.13;102121.72;4972009;28;96719;-34
2022/05/03 09:11:48;;;;;;;11.30;5.93;;;;;;;15.06;60.87;102121.56;4972375;28;97488;-35
2022/05/03 09:14:36;;;;;;;13.10;5.78;;;;;;;15.13;61.77;102133.88;4970495;28;100758;-35
2022/05/03 09:17:05;;;;;;;13.10;6.18;;;;;;;15.13;60.61;102144.78;4971857;28;96676;-34
2022/05/03 09:19:30;;;;;;;11.23;6.20;;;;;;;15.04;60.90;102126.22;4971442;28;96762;-35
2022/05/03 09:25:02;;;;;;;11.15;6.00;;;;;;;15.06;60.92;102140.66;4973738;28;96910;-34
2022/05/03 09:27:27;;;;;;;10.85;5.68;;;;;;;15.04;60.53;102131.69;4969602;28;97211;-35
2022/05/03 09:29:59;;;;;;;12.32;6.35;;;;;;;15.27;61.14;102143.97;4972901;28;96751;-35
2022/05/03 09:32:43;;;;;;;13.43;6.72;;;;;;;15.20;61.01;102128.94;4972758;28;99014;-34
2022/05/03 09:35:32;;;;;;;14.55;7.13;;;;;;;15.16;60.69;102136.44;4955428;28;100984;-34
2022/05/03 09:37:57;;;;;;;9.75;5.50;;;;;;;15.00;60.77;102139.19;4973124;28;96425;-35
2022/05/03 09:40:23;;;;;;;13.13;6.57;;;;;;;15.01;61.28;102131.88;4973531;28;96901;-35
2022/05/03 09:42:53;;;;;;;14.32;6.68;;;;;;;14.90;61.43;102137.09;4973347;28;97595;-35
2022/05/03 09:45:23;;;;;;;10.90;5.63;;;;;;;14.92;61.54;102140.63;4971298;28;101227;-34
2022/05/03 09:47:53;;;;;;;10.20;5.75;;;;;;;14.99;61.14;102128.38;4972530;28;96691;-35
2022/05/03 09:50:39;;;;;;;12.13;6.35;;;;;;;15.55;60.39;102125.91;4971777;28;96808;-34
2022/05/03 09:53:16;;;;;;;13.23;6.10;;;;;;;16.07;59.38;102128.09;4972900;28;98103;-34
2022/05/03 09:55:42;;;;;;;8.25;4.63;;;;;;;16.46;57.68;102113.66;4971121;28;100693;-35
2022/05/03 09:58:10;;;;;;;14.32;5.95;;;;;;;17.00;56.80;102112.84;4972769;28;96622;-35
2022/05/03 10:00:38;;;;;;;16.98;6.88;;;;;;;17.35;55.90;102114.97;4971373;28;96881;-34
2022/05/03 10:03:07;;;;;;;15.15;6.22;;;;;;;17.16;55.93;102121.75;4971317;28;100825;-35
2022/05/03 10:05:34;;;;;;;13.30;5.25;;;;;;;17.00;56.01;102121.06;4972866;28;97978;-35
2022/05/03 10:08:00;;;;;;;11.57;5.22;;;;;;;16.84;56.62;102115.75;4972613;28;96624;-35
2022/05/03 10:10:27;;;;;;;11.88;5.60;;;;;;;16.78;56.12;102110.66;4971372;28;96937;-35
2022/05/03 10:12:56;;;;;;;9.70;4.88;;;;;;;16.89;55.57;102116.28;4970232;28;100872;-35
2022/05/03 10:21:11;;;;;;;14.05;6.18;;;;;;;17.77;54.42;102119.28;4972746;28;96603;-35
2022/05/03 10:23:37;;;;;;;13.18;6.18;;;;;;;17.50;55.17;102122.13;4972303;28;99125;-34
2022/05/03 10:26:08;;;;;;;17.33;7.32;;;;;;;17.16;56.16;102109.91;4972448;28;97426;-35
2022/05/03 10:29:06;;;;;;;14.35;7.05;;;;;;;16.96;56.68;102123.09;4972487;28;96489;-34
2022/05/03 10:31:51;;;;;;;18.65;6.20;;;;;;;17.32;56.76;102118.81;4970478;28;96814;-35
2022/05/03 10:34:45;;;;;;;14.00;6.70;;;;;;;17.78;54.99;102110.09;4972606;28;97890;-35
2022/05/03 10:37:18;;;;;;;13.57;5.95;;;;;;;17.99;54.56;102118.63;4972448;28;97885;-35
2022/05/03 10:39:54;;;;;;;12.93;6.93;;;;;;;17.76;54.82;102095.63;4971906;28;96777;-35
2022/05/03 10:42:22;;;;;;;16.30;7.43;;;;;;;17.57;55.65;102097.94;4972472;28;96663;-34
2022/05/03 10:45:01;;;;;;;20.33;8.05;;;;;;;17.43;55.75;102114.47;4970764;28;100940;-35
2022/05/03 10:47:50;;;;;;;13.98;7.22;;;;;;;17.43;56.18;102115.34;4972055;28;99279;-35
2022/05/03 10:50:16;;;;;;;13.75;6.22;;;;;;;17.48;56.31;102110.41;4970969;28;96602;-35
2022/05/03 10:53:05;;;;;;;20.77;7.60;;;;;;;17.63;55.38;102101.09;4972302;28;96804;-35
2022/05/03 10:56:05;;;;;;;13.70;6.80;;;;;;;17.87;54.84;102102.22;4973710;28;97988;-35
2022/05/03 10:58:36;;;;;;;14.60;6.18;;;;;;;17.59;55.20;102102.31;4970995;28;100685;-35
2022/05/03 11:01:22;;;;;;;18.63;6.85;;;;;;;17.38;55.52;102096.47;4972210;28;96502;-35
2022/05/03 11:03:47;;;;;;;15.00;6.47;;;;;;;17.41;55.76;102101.72;4972296;28;96484;-35
2022/05/03 11:06:18;;;;;;;15.37;7.00;;;;;;;17.64;55.63;102107.47;4970925;28;111309;-35
2022/05/03 11:11:36;;;;;;;14.05;6.13;;;;;;;17.75;54.85;102099.31;4970926;28;96685;-35
2022/05/03 11:14:02;;;;;;;16.08;5.43;;;;;;;17.60;54.82;102106.78;4971704;28;96812;-35
2022/05/03 11:16:34;;;;;;;13.50;5.40;;;;;;;17.47;55.16;102094.97;4970351;28;100859;-35
2022/05/03 11:19:08;;;;;;;13.15;5.72;;;;;;;17.50;54.86;102088.38;4971821;28;97808;-35
2022/05/03 11:21:34;;;;;;;16.40;6.55;;;;;;;17.64;54.30;102077.31;4970598;28;96567;-35
2022/05/03 11:23:59;;;;;;;16.23;6.47;;;;;;;17.82;54.55;102089.72;4972525;28;96789;-35
2022/05/03 11:26:25;;;;;;;13.40;6.15;;;;;;;17.68;54.95;102092.53;4970867;28;127153;-35
2022/05/03 11:28:51;;;;;;;12.40;5.63;;;;;;;17.44;55.07;102092.41;4970362;28;101113;-35
2022/05/03 11:31:20;;;;;;;19.08;6.63;;;;;;;17.14;55.78;102085.38;4969799;28;97074;-35
2022/05/03 11:33:50;;;;;;;12.65;4.90;;;;;;;17.05;55.76;102082.41;4953898;28;96868;-35
2022/05/03 11:36:15;;;;;;;17.02;6.35;;;;;;;16.90;56.46;102084.31;4953904;28;100907;-35
2022/05/03 11:38:41;;;;;;;14.05;5.85;;;;;;;16.80;56.16;102086.81;4971608;28;97330;-35
2022/05/03 11:41:07;;;;;;;13.82;5.97;;;;;;;16.77;56.54;102087.00;4970558;28;122523;-35
2022/05/03 11:43:33;;;;;;;12.75;5.53;;;;;;;16.69;56.71;102086.66;4974078;28;96817;-35
2022/05/03 11:45:59;;;;;;;14.75;5.70;;;;;;;16.61;56.84;102078.94;4974642;28;98851;-35
2022/05/03 11:48:25;;;;;;;14.13;5.90;;;;;;;16.66;56.92;102075.91;4973653;28;100820;-35
2022/05/03 11:56:26;;;;;;;13.30;5.90;;;;;;;17.34;55.08;102066.69;4974394;28;97087;-35
2022/05/03 11:58:52;;;;;;;9.50;4.20;;;;;;;17.31;54.97;102062.28;4972964;28;100634;-35
2022/05/03 12:01:18;;;;;;;12.02;5.43;;;;;;;17.33;54.90;102048.50;4974952;28;96701;-35
2022/05/03 12:03:45;;;;;;;14.68;5.45;;;;;;;17.50;54.70;102044.56;4974801;28;96808;-35
2022/05/03 12:06:11;;;;;;;13.27;5.78;;;;;;;17.98;53.65;102048.34;4973006;28;100822;-35
2022/05/03 12:08:37;;;;;;;14.68;4.85;;;;;;;18.56;53.16;102045.84;4974352;28;97792;-35